createdAt,value
2023-02-20T00:01:54.937Z,1.93
2023-02-20T00:04:23.330Z,1.73
2023-02-20T00:06:51.628Z,2.00
2023-02-20T00:09:20.032Z,2.27
2023-02-20T00:11:48.543Z,2.00
2023-02-20T00:14:18.309Z,2.03
2023-02-20T00:16:48.798Z,2.00
2023-02-20T00:19:17.305Z,2.00
2023-02-20T00:21:48.626Z,2.50
2023-02-20T00:24:17.176Z,2.27
2023-02-20T00:26:47.971Z,2.40
2023-02-20T00:29:18.432Z,2.30
2023-02-20T00:31:52.377Z,1.90
2023-02-20T00:34:20.932Z,1.80
2023-02-20T00:36:49.378Z,2.00
2023-02-20T00:39:17.729Z,2.23
2023-02-20T00:41:46.081Z,2.37
2023-02-20T00:44:14.531Z,2.50
2023-02-20T00:46:44.402Z,2.57
2023-02-20T00:49:12.790Z,1.87
2023-02-20T00:51:41.109Z,2.03
2023-02-20T00:54:09.457Z,1.77
2023-02-20T00:56:37.764Z,2.03
2023-02-20T00:59:06.245Z,2.20
2023-02-20T01:01:34.642Z,2.50
2023-02-20T01:04:04.394Z,2.43
2023-02-20T01:06:32.928Z,2.00
2023-02-20T01:09:01.250Z,2.20
2023-02-20T01:11:29.578Z,1.90
2023-02-20T01:13:57.948Z,1.73
2023-02-20T01:16:26.477Z,1.50
2023-02-20T01:18:55.148Z,1.97
2023-02-20T01:21:24.809Z,2.00
2023-02-20T01:23:53.252Z,2.23
2023-02-20T01:26:21.686Z,2.33
2023-02-20T01:28:50.275Z,2.07
2023-02-20T01:31:18.765Z,2.17
2023-02-20T01:33:47.191Z,1.93
2023-02-20T01:36:15.553Z,1.80
2023-02-20T01:38:45.421Z,2.00
2023-02-20T01:41:13.969Z,2.37
2023-02-20T01:43:42.288Z,1.73
2023-02-20T01:46:29.202Z,2.40
2023-02-20T01:49:01.263Z,3.10
2023-02-20T01:51:30.028Z,2.37
2023-02-20T01:53:59.761Z,2.50
2023-02-20T01:56:28.352Z,2.30
2023-02-20T01:58:57.139Z,2.30
2023-02-20T02:01:25.702Z,1.97
2023-02-20T02:03:56.450Z,2.13
2023-02-20T02:06:25.895Z,2.27
2023-02-20T02:08:55.158Z,2.23
2023-02-20T02:11:25.934Z,2.50
2023-02-20T02:13:54.447Z,2.00
2023-02-20T02:16:29.995Z,2.40
2023-02-20T02:19:01.665Z,2.13
2023-02-20T02:21:42.384Z,2.00
2023-02-20T02:24:29.522Z,3.07
2023-02-20T02:27:12.737Z,2.67
2023-02-20T02:29:47.509Z,2.30
2023-02-20T02:32:24.240Z,1.70
2023-02-20T02:35:12.935Z,2.00
2023-02-20T02:37:45.474Z,2.50
2023-02-20T02:40:16.091Z,2.23
2023-02-20T02:42:49.282Z,2.20
2023-02-20T02:45:19.603Z,2.33
2023-02-20T02:47:49.221Z,2.07
2023-02-20T02:50:18.884Z,2.37
2023-02-20T02:52:49.706Z,1.73
2023-02-20T02:55:20.006Z,2.40
2023-02-20T02:57:48.475Z,2.33
2023-02-20T03:00:18.897Z,2.30
2023-02-20T03:02:49.947Z,2.43
2023-02-20T03:05:20.563Z,2.13
2023-02-20T03:07:52.206Z,2.37
2023-02-20T03:10:31.868Z,2.33
2023-02-20T03:13:02.832Z,2.20
2023-02-20T03:15:35.078Z,2.30
2023-02-20T03:18:15.855Z,2.13
2023-02-20T03:20:46.206Z,2.03
2023-02-20T03:23:17.670Z,2.10
2023-02-20T03:25:49.302Z,2.43
2023-02-20T03:28:19.484Z,2.13
2023-02-20T03:30:48.855Z,1.90
2023-02-20T03:33:36.563Z,2.60
2023-02-20T03:36:24.403Z,2.30
2023-02-20T03:39:14.047Z,1.90
2023-02-20T03:42:01.525Z,2.53
2023-02-20T03:44:30.208Z,2.10
2023-02-20T03:46:59.394Z,2.20
2023-02-20T03:49:31.144Z,2.00
2023-02-20T03:51:59.754Z,3.37
2023-02-20T03:54:30.067Z,2.70
2023-02-20T03:56:59.370Z,2.40
2023-02-20T03:59:29.033Z,2.17
2023-02-20T04:01:59.603Z,2.60
2023-02-20T04:04:31.269Z,2.60
2023-02-20T04:07:00.577Z,2.13
2023-02-20T04:09:32.846Z,2.20
2023-02-20T04:12:02.297Z,2.40
2023-02-20T04:14:31.641Z,1.77
2023-02-20T04:17:02.681Z,2.00
2023-02-20T04:19:31.215Z,2.60
2023-02-20T04:22:01.874Z,2.17
2023-02-20T04:24:33.448Z,2.00
2023-02-20T04:27:02.215Z,2.43
2023-02-20T04:29:30.871Z,2.10
2023-02-20T04:31:59.298Z,2.83
2023-02-20T04:34:27.931Z,2.20
2023-02-20T04:37:04.119Z,2.30
2023-02-20T04:39:33.859Z,2.40
2023-02-20T04:42:02.180Z,2.30
2023-02-20T04:44:34.089Z,2.63
2023-02-20T04:47:03.400Z,2.00
2023-02-20T04:49:32.383Z,2.70
2023-02-20T04:52:00.814Z,2.47
2023-02-20T04:54:29.086Z,2.33
2023-02-20T04:56:58.893Z,2.33
2023-02-20T04:59:27.278Z,2.27
2023-02-20T05:01:56.430Z,2.47
2023-02-20T05:04:25.004Z,2.60
2023-02-20T05:06:54.165Z,2.60
2023-02-20T05:09:22.896Z,2.80
2023-02-20T05:11:51.300Z,2.37
2023-02-20T05:14:21.334Z,2.50
2023-02-20T05:16:51.205Z,2.40
2023-02-20T05:19:20.045Z,2.50
2023-02-20T05:22:06.714Z,2.03
2023-02-20T05:24:35.077Z,2.40
2023-02-20T05:27:03.714Z,2.70
2023-02-20T05:29:33.477Z,3.10
2023-02-20T05:32:01.851Z,3.07
2023-02-20T05:34:30.311Z,2.47
2023-02-20T05:36:58.765Z,2.60
2023-02-20T05:39:27.083Z,2.20
2023-02-20T05:41:55.422Z,2.30
2023-02-20T05:44:23.727Z,2.40
2023-02-20T05:46:54.230Z,3.20
2023-02-20T05:49:22.707Z,2.23
2023-02-20T05:51:51.394Z,1.93
2023-02-20T05:54:19.873Z,2.47
2023-02-20T05:56:48.664Z,2.57
2023-02-20T05:59:19.539Z,1.90
2023-02-20T06:01:47.836Z,2.20
2023-02-20T06:04:17.694Z,2.60
2023-02-20T06:06:46.175Z,2.40
2023-02-20T06:09:16.668Z,2.03
2023-02-20T06:11:50.197Z,2.03
2023-02-20T06:14:19.553Z,2.60
2023-02-20T06:16:48.357Z,2.40
2023-02-20T06:19:22.433Z,2.30
2023-02-20T06:21:51.135Z,2.23
2023-02-20T06:24:19.820Z,2.13
2023-02-20T06:26:48.640Z,1.90
2023-02-20T06:29:17.808Z,2.10
2023-02-20T06:31:46.330Z,2.17
2023-02-20T06:34:14.874Z,2.50
2023-02-20T06:36:44.897Z,2.37
2023-02-20T06:39:14.764Z,2.17
2023-02-20T06:41:43.854Z,2.07
2023-02-20T06:44:12.290Z,2.70
2023-02-20T06:46:40.793Z,2.40
2023-02-20T06:49:09.194Z,2.17
2023-02-20T06:51:37.867Z,2.50
2023-02-20T06:54:07.754Z,2.00
2023-02-20T06:56:37.110Z,2.30
2023-02-20T06:59:09.058Z,2.40
2023-02-20T07:01:40.797Z,2.00
2023-02-20T07:04:09.812Z,2.10
2023-02-20T07:06:38.237Z,2.33
2023-02-20T07:09:07.938Z,2.20
2023-02-20T07:11:36.467Z,2.00
2023-02-20T07:14:04.923Z,2.13
2023-02-20T07:16:33.303Z,2.10
2023-02-20T07:19:01.662Z,2.00
2023-02-20T07:21:29.898Z,1.73
2023-02-20T07:23:58.180Z,1.70
2023-02-20T07:26:29.008Z,2.00
2023-02-20T07:28:58.898Z,2.50
2023-02-20T07:31:27.388Z,2.10
2023-02-20T07:33:55.830Z,1.90
2023-02-20T07:36:24.356Z,1.77
2023-02-20T07:38:55.874Z,1.93
2023-02-20T07:41:24.408Z,1.90
2023-02-20T07:43:54.211Z,2.30
2023-02-20T07:46:22.496Z,1.80
2023-02-20T07:48:50.920Z,2.07
2023-02-20T07:51:19.295Z,2.17
2023-02-20T07:53:50.493Z,2.13
2023-02-20T07:56:18.977Z,3.60
2023-02-20T07:58:47.518Z,1.90
2023-02-20T08:01:17.302Z,3.00
2023-02-20T08:03:45.714Z,3.50
2023-02-20T08:06:15.061Z,2.77
2023-02-20T08:08:43.577Z,2.10
2023-02-20T08:11:11.853Z,2.17
2023-02-20T08:13:40.339Z,1.70
2023-02-20T08:16:08.848Z,2.20
2023-02-20T08:18:38.633Z,2.67
2023-02-20T08:21:07.114Z,3.00
2023-02-20T08:23:35.535Z,2.50
2023-02-20T08:26:04.689Z,2.50
2023-02-20T08:28:33.094Z,2.57
2023-02-20T08:31:01.435Z,2.30
2023-02-20T08:33:29.774Z,2.33
2023-02-20T08:35:59.629Z,2.20
2023-02-20T08:38:30.066Z,2.20
2023-02-20T08:40:58.441Z,1.97
2023-02-20T08:43:28.135Z,1.80
2023-02-20T08:45:56.839Z,2.63
2023-02-20T08:48:25.104Z,2.23
2023-02-20T08:50:53.729Z,2.03
2023-02-20T08:53:23.753Z,2.97
2023-02-20T08:55:52.188Z,2.70
2023-02-20T08:58:21.586Z,2.37
2023-02-20T09:00:50.343Z,2.77
2023-02-20T09:03:19.012Z,2.10
2023-02-20T09:05:47.568Z,2.53
2023-02-20T09:08:16.019Z,2.60
2023-02-20T09:10:45.996Z,2.50
2023-02-20T09:13:14.582Z,2.13
2023-02-20T09:15:43.038Z,2.17
2023-02-20T09:18:13.638Z,2.03
2023-02-20T09:20:42.677Z,2.03
2023-02-20T09:23:11.140Z,2.10
2023-02-20T09:25:39.524Z,2.40
2023-02-20T09:28:09.805Z,2.93
2023-02-20T09:30:38.223Z,2.67
2023-02-20T09:33:06.677Z,2.47
2023-02-20T09:35:35.101Z,1.83
2023-02-20T09:38:03.640Z,2.13
2023-02-20T09:40:33.552Z,2.50
2023-02-20T09:43:13.662Z,2.30
2023-02-20T09:45:43.156Z,2.80
2023-02-20T09:48:19.458Z,2.30
2023-02-20T09:50:51.548Z,2.03
2023-02-20T09:53:25.041Z,2.13
2023-02-20T09:55:54.185Z,2.30
2023-02-20T09:58:28.234Z,1.73
2023-02-20T10:00:59.469Z,1.73
2023-02-20T10:03:33.004Z,1.80
2023-02-20T10:06:01.450Z,1.73
2023-02-20T10:08:29.690Z,2.20
2023-02-20T10:10:59.819Z,1.80
2023-02-20T10:13:42.966Z,2.10
2023-02-20T10:16:18.541Z,1.80
2023-02-20T10:18:49.541Z,1.60
2023-02-20T10:21:19.790Z,1.70
2023-02-20T10:24:04.619Z,1.67
2023-02-20T10:26:36.786Z,1.93
2023-02-20T10:29:16.032Z,1.80
2023-02-20T10:31:47.441Z,1.90
2023-02-20T10:34:18.460Z,1.97
2023-02-20T10:36:48.876Z,1.80
2023-02-20T10:39:18.088Z,2.00
2023-02-20T10:41:51.168Z,2.10
2023-02-20T10:44:21.529Z,2.13
2023-02-20T10:46:53.756Z,2.20
2023-02-20T10:49:27.269Z,2.13
2023-02-20T10:51:58.891Z,1.87
2023-02-20T10:54:31.642Z,2.00
2023-02-20T10:57:02.331Z,1.70
2023-02-20T10:59:33.321Z,1.50
2023-02-20T11:02:05.832Z,1.90
2023-02-20T11:04:35.994Z,1.53
2023-02-20T11:07:06.455Z,1.57
2023-02-20T11:09:34.871Z,1.63
2023-02-20T11:12:03.160Z,1.80
2023-02-20T11:14:40.488Z,1.50
2023-02-20T11:17:12.525Z,1.80
2023-02-20T11:19:42.697Z,1.37
2023-02-20T11:22:11.293Z,1.50
2023-02-20T11:24:40.029Z,1.50
2023-02-20T11:27:10.151Z,1.60
2023-02-20T11:29:49.826Z,1.30
2023-02-20T11:32:26.830Z,1.30
2023-02-20T11:35:30.046Z,1.37
2023-02-20T11:38:17.121Z,1.30
2023-02-20T11:40:45.473Z,1.20
2023-02-20T11:43:17.730Z,1.20
2023-02-20T11:45:46.548Z,1.00
2023-02-20T11:48:17.483Z,1.25
2023-02-20T11:50:47.444Z,1.23
2023-02-20T11:53:23.452Z,1.50
2023-02-20T11:55:59.999Z,1.20
2023-02-20T11:58:30.285Z,1.10
2023-02-20T12:00:58.726Z,1.40
2023-02-20T12:03:29.554Z,1.15
2023-02-20T12:05:58.410Z,1.35
2023-02-20T12:08:41.737Z,1.10
2023-02-20T12:11:11.358Z,1.10
2023-02-20T12:13:41.921Z,0.98
2023-02-20T12:16:23.014Z,0.80
2023-02-20T12:18:55.927Z,1.10
2023-02-20T12:21:37.971Z,1.05
2023-02-20T12:24:18.129Z,1.00
2023-02-20T12:26:54.290Z,1.10
2023-02-20T12:29:30.418Z,0.90
2023-02-20T12:32:09.710Z,1.17
2023-02-20T12:34:45.024Z,0.98
2023-02-20T12:37:19.601Z,1.20
2023-02-20T12:39:55.673Z,1.17
2023-02-20T12:42:28.805Z,0.93
2023-02-20T12:45:05.881Z,0.93
2023-02-20T12:47:35.016Z,0.80
2023-02-20T12:50:18.269Z,0.90
2023-02-20T12:53:00.765Z,1.00
2023-02-20T12:55:34.781Z,0.70
2023-02-20T12:58:09.774Z,1.00
2023-02-20T13:00:40.249Z,1.07
2023-02-20T13:03:11.865Z,0.90
2023-02-20T13:05:43.648Z,1.20
2023-02-20T13:08:14.652Z,0.87
2023-02-20T13:10:47.316Z,0.83
2023-02-20T13:13:16.887Z,1.10
2023-02-20T13:15:50.741Z,1.10
2023-02-20T13:18:23.154Z,1.13
2023-02-20T13:20:54.616Z,1.00
2023-02-20T13:23:30.261Z,1.00
2023-02-20T13:25:58.952Z,1.10
2023-02-20T13:28:45.559Z,0.60
2023-02-20T13:31:15.645Z,1.00
2023-02-20T13:33:44.867Z,0.60
2023-02-20T13:36:19.568Z,0.73
2023-02-20T13:39:02.923Z,0.90
2023-02-20T13:41:53.372Z,0.90
2023-02-20T13:44:35.858Z,0.60
2023-02-20T13:47:05.125Z,0.60
2023-02-20T13:49:52.602Z,0.90
2023-02-20T13:52:49.323Z,1.20
2023-02-20T13:55:22.475Z,0.83
2023-02-20T13:57:52.147Z,0.80
2023-02-20T14:00:24.573Z,0.80
2023-02-20T14:02:53.174Z,1.03
2023-02-20T14:05:23.065Z,0.80
2023-02-20T14:07:51.446Z,0.60
2023-02-20T14:10:25.888Z,0.90
2023-02-20T14:12:59.460Z,0.77
2023-02-20T14:15:28.048Z,0.70
2023-02-20T14:17:56.637Z,0.83
2023-02-20T14:20:26.243Z,0.70
2023-02-20T14:23:08.149Z,1.13
2023-02-20T14:25:38.070Z,0.90
2023-02-20T14:28:12.635Z,0.80
2023-02-20T14:30:41.329Z,0.70
2023-02-20T14:33:21.687Z,0.60
2023-02-20T14:36:04.315Z,0.70
2023-02-20T14:38:37.140Z,1.00
2023-02-20T14:41:14.339Z,0.80
2023-02-20T14:43:42.781Z,0.80
2023-02-20T14:46:20.266Z,0.93
2023-02-20T14:48:48.714Z,0.83
2023-02-20T14:51:17.977Z,0.90
2023-02-20T14:53:47.146Z,0.70
2023-02-20T14:56:18.351Z,0.90
2023-02-20T14:58:47.213Z,0.90
2023-02-20T15:01:16.659Z,0.90
2023-02-20T15:03:45.223Z,0.70
2023-02-20T15:06:16.273Z,0.80
2023-02-20T15:08:44.742Z,1.13
2023-02-20T15:11:13.951Z,1.17
2023-02-20T15:13:44.690Z,1.07
2023-02-20T15:16:17.793Z,1.00
2023-02-20T15:18:48.935Z,1.10
2023-02-20T15:21:32.423Z,1.10
2023-02-20T15:24:13.705Z,1.10
2023-02-20T15:26:42.319Z,1.00
2023-02-20T15:29:20.930Z,1.10
2023-02-20T15:31:55.898Z,0.80
2023-02-20T15:34:24.998Z,1.00
2023-02-20T15:36:53.408Z,1.10
2023-02-20T15:39:21.764Z,1.03
2023-02-20T15:41:50.410Z,1.40
2023-02-20T15:44:20.055Z,1.20
2023-02-20T15:46:48.392Z,2.20
2023-02-20T15:49:20.884Z,2.67
2023-02-20T15:51:56.150Z,1.80
2023-02-20T15:54:27.780Z,3.00
2023-02-20T15:56:56.239Z,2.20
2023-02-20T15:59:26.111Z,3.50
2023-02-20T16:01:54.851Z,2.30
2023-02-20T16:04:23.276Z,1.53
2023-02-20T16:06:51.672Z,1.20
2023-02-20T16:09:20.028Z,1.57
2023-02-20T16:11:49.125Z,1.00
2023-02-20T16:14:18.112Z,1.40
2023-02-20T16:16:48.949Z,0.90
2023-02-20T16:19:18.303Z,0.97
2023-02-20T16:21:58.021Z,0.93
2023-02-20T16:24:26.890Z,1.00
2023-02-20T16:26:55.793Z,0.80
2023-02-20T16:29:24.666Z,1.10
2023-02-20T16:32:17.067Z,1.03
2023-02-20T16:34:46.066Z,1.30
2023-02-20T16:37:15.170Z,1.20
2023-02-20T16:39:43.483Z,1.10
2023-02-20T16:42:20.614Z,1.70
2023-02-20T16:44:49.853Z,1.20
2023-02-20T16:47:21.045Z,1.47
2023-02-20T16:49:49.882Z,1.27
2023-02-20T16:52:21.254Z,1.20
2023-02-20T16:54:50.494Z,1.27
2023-02-20T16:57:21.487Z,1.23
2023-02-20T16:59:49.877Z,1.27
2023-02-20T17:02:21.106Z,2.10
2023-02-20T17:04:49.904Z,1.80
2023-02-20T17:07:18.812Z,1.67
2023-02-20T17:09:47.167Z,1.70
2023-02-20T17:12:16.791Z,1.70
2023-02-20T17:14:45.196Z,1.00
2023-02-20T17:17:14.040Z,0.93
2023-02-20T17:19:44.561Z,0.90
2023-02-20T17:22:13.334Z,1.03
2023-02-20T17:24:42.528Z,1.23
2023-02-20T17:27:11.603Z,1.20
2023-02-20T17:29:40.292Z,1.57
2023-02-20T17:32:08.746Z,1.17
2023-02-20T17:34:37.202Z,0.90
2023-02-20T17:37:07.693Z,1.33
2023-02-20T17:39:36.362Z,1.00
2023-02-20T17:42:04.796Z,1.10
2023-02-20T17:44:33.445Z,1.20
2023-02-20T17:47:02.438Z,1.40
2023-02-20T17:49:30.850Z,1.23
2023-02-20T17:52:00.205Z,1.10
2023-02-20T17:54:31.895Z,1.20
2023-02-20T17:57:00.357Z,1.17
2023-02-20T17:59:30.406Z,1.20
2023-02-20T18:01:58.888Z,1.33
2023-02-20T18:04:27.265Z,1.37
2023-02-20T18:06:55.688Z,1.13
2023-02-20T18:09:24.120Z,0.97
2023-02-20T18:11:53.980Z,1.70
2023-02-20T18:14:22.399Z,1.17
2023-02-20T18:16:50.682Z,1.30
2023-02-20T18:19:19.422Z,1.20
2023-02-20T18:21:49.863Z,1.30
2023-02-20T18:24:19.094Z,1.37
2023-02-20T18:26:47.404Z,1.30
2023-02-20T18:29:17.243Z,1.33
2023-02-20T18:31:45.686Z,1.50
2023-02-20T18:34:14.050Z,1.30
2023-02-20T18:36:42.574Z,1.20
2023-02-20T18:39:13.765Z,1.43
2023-02-20T18:41:42.253Z,1.10
2023-02-20T18:44:10.888Z,1.50
2023-02-20T18:46:40.650Z,1.20
2023-02-20T18:49:09.246Z,1.27
2023-02-20T18:51:38.714Z,1.30
2023-02-20T18:54:08.016Z,1.57
2023-02-20T18:56:37.042Z,1.17
2023-02-20T18:59:05.415Z,1.40
2023-02-20T19:01:34.666Z,1.20
2023-02-20T19:04:05.888Z,1.33
2023-02-20T19:06:37.076Z,1.33
2023-02-20T19:09:05.914Z,1.30
2023-02-20T19:11:34.194Z,1.87
2023-02-20T19:14:02.560Z,2.10
2023-02-20T19:16:31.014Z,1.60
2023-02-20T19:18:59.341Z,5.00
2023-02-20T19:21:29.170Z,1.60
2023-02-20T19:23:57.520Z,1.50
2023-02-20T19:26:25.839Z,1.17
2023-02-20T19:28:54.156Z,1.40
2023-02-20T19:31:22.479Z,6.87
2023-02-20T19:33:51.021Z,2.50
2023-02-20T19:36:19.501Z,1.73
2023-02-20T19:38:49.405Z,2.73
2023-02-20T19:41:18.728Z,1.70
2023-02-20T19:43:49.118Z,2.83
2023-02-20T19:46:17.982Z,2.37
2023-02-20T19:48:46.487Z,2.37
2023-02-20T19:51:15.293Z,1.90
2023-02-20T19:53:43.721Z,1.67
2023-02-20T19:56:14.267Z,1.73
2023-02-20T19:58:43.502Z,1.90
2023-02-20T20:01:14.992Z,1.50
2023-02-20T20:03:43.794Z,2.00
2023-02-20T20:06:12.568Z,1.47
2023-02-20T20:09:01.855Z,1.70
2023-02-20T20:11:31.043Z,1.37
2023-02-20T20:13:59.423Z,1.43
2023-02-20T20:16:27.991Z,1.57
2023-02-20T20:18:56.337Z,1.57
2023-02-20T20:21:24.762Z,1.80
2023-02-20T20:23:54.374Z,1.50
2023-02-20T20:26:26.049Z,1.30
2023-02-20T20:28:56.028Z,1.57
2023-02-20T20:31:25.565Z,2.03
2023-02-20T20:33:54.612Z,1.93
2023-02-20T20:36:22.979Z,1.43
2023-02-20T20:38:51.351Z,1.77
2023-02-20T20:41:19.739Z,1.53
2023-02-20T20:43:48.672Z,1.60
2023-02-20T20:46:18.714Z,1.80
2023-02-20T20:48:47.836Z,1.57
2023-02-20T20:51:17.380Z,1.70
2023-02-20T20:53:46.381Z,1.60
2023-02-20T20:56:15.060Z,1.87
2023-02-20T20:58:44.187Z,1.80
2023-02-20T21:01:12.858Z,1.70
2023-02-20T21:03:42.761Z,1.73
2023-02-20T21:06:11.499Z,1.87
2023-02-20T21:08:39.877Z,2.00
2023-02-20T21:11:08.484Z,1.60
2023-02-20T21:13:36.830Z,2.00
2023-02-20T21:16:05.314Z,2.00
2023-02-20T21:18:33.771Z,1.70
2023-02-20T21:21:03.515Z,1.77
2023-02-20T21:23:31.943Z,2.07
2023-02-20T21:26:00.278Z,1.73
2023-02-20T21:28:28.632Z,1.60
2023-02-20T21:30:57.007Z,2.00
2023-02-20T21:33:25.484Z,2.30
2023-02-20T21:35:53.820Z,1.93
2023-02-20T21:38:23.446Z,1.80
2023-02-20T21:40:51.773Z,1.57
2023-02-20T21:43:37.788Z,1.80
2023-02-20T21:46:06.161Z,1.87
2023-02-20T21:48:34.486Z,2.20
2023-02-20T21:51:03.192Z,2.50
2023-02-20T21:53:32.947Z,1.70
2023-02-20T21:56:01.320Z,2.13
2023-02-20T21:58:49.487Z,2.90
2023-02-20T22:01:16.732Z,2.13
2023-02-20T22:03:43.997Z,1.90
2023-02-20T22:06:11.195Z,1.80
2023-02-20T22:08:58.363Z,2.00
2023-02-20T22:11:44.461Z,1.77
2023-02-20T22:14:30.432Z,2.00
2023-02-20T22:17:16.501Z,2.13
2023-02-20T22:20:02.312Z,1.80
2023-02-20T22:22:48.322Z,1.63
2023-02-20T22:25:36.090Z,2.23
2023-02-20T22:28:22.426Z,1.80
2023-02-20T22:31:08.441Z,1.63
2023-02-20T22:33:54.681Z,1.53
2023-02-20T22:36:40.756Z,2.13
2023-02-20T22:39:27.149Z,2.13
2023-02-20T22:42:18.456Z,1.90
2023-02-20T22:45:04.747Z,1.90
2023-02-20T22:47:50.495Z,1.40
2023-02-20T22:50:36.846Z,1.60
2023-02-20T22:53:23.290Z,2.40
2023-02-20T22:56:09.373Z,2.00
2023-02-20T22:58:56.458Z,2.03
2023-02-20T23:01:42.664Z,2.20
2023-02-20T23:04:28.788Z,2.13
2023-02-20T23:07:14.792Z,1.40
2023-02-20T23:10:00.636Z,2.00
2023-02-20T23:12:46.776Z,1.90
2023-02-20T23:15:34.138Z,2.13
2023-02-20T23:18:20.336Z,2.10
2023-02-20T23:21:06.194Z,1.53
2023-02-20T23:23:52.432Z,2.93
2023-02-20T23:26:38.270Z,1.90
2023-02-20T23:29:24.317Z,2.33
2023-02-20T23:32:11.642Z,2.17
2023-02-20T23:34:57.522Z,2.10
2023-02-20T23:37:43.276Z,1.93
2023-02-20T23:40:36.423Z,1.80
2023-02-20T23:43:22.989Z,1.70
2023-02-20T23:46:09.413Z,2.23
2023-02-20T23:48:56.934Z,1.90
2023-02-20T23:51:43.110Z,1.60
2023-02-20T23:54:29.441Z,2.30
2023-02-20T23:57:15.575Z,1.87
